Cordele, Texas
Current Conditions -  °F | °C
As of 6:51 AM on Friday 31 Oct 2014 (Local Time) from KVCT Reporting Station
Broken Clouds Broken Clouds  
Wind Chill: 65°   Ceiling: 10000
Heat Index: 65°   Visibility: 10mi
Dew Point: 62°   Wind: 6mph
Humidity: 90%   Direction: 20°NNE
Pressure: 30.13"   Gusts: NA
Location:  29.0129°N, 96.6883°W
Report Text: KVCT 311151Z 02005KT 10SM FEW080 BKN100 18/17 A3013 RMK AO2 SLP199 T01830167 10194 20178 51010
Loading
Personal Weather Stations






























Interactive Weather Map
Tropical Storm Tracking
New forecast layout! Learn more

10-Day Weather Forecast

Advertisements
Track Severe Weather on mobile